createdAt,value
2019-01-06T00:00:29.956Z,1.40
2019-01-06T00:06:24.916Z,1.40
2019-01-06T00:12:06.132Z,1.40
2019-01-06T00:17:49.281Z,1.37
2019-01-06T00:23:31.306Z,1.38
2019-01-06T00:29:26.309Z,1.36
2019-01-06T00:35:14.745Z,1.39
2019-01-06T00:40:44.541Z,1.41
2019-01-06T00:46:32.475Z,1.40
2019-01-06T00:52:16.812Z,1.42
2019-01-06T00:57:56.296Z,1.31
2019-01-06T01:03:45.417Z,1.31
2019-01-06T01:09:52.081Z,1.36
2019-01-06T01:15:43.377Z,1.29
2019-01-06T01:21:21.004Z,1.36
2019-01-06T01:27:08.927Z,1.40
2019-01-06T01:32:54.074Z,1.41
2019-01-06T01:38:41.706Z,1.42
2019-01-06T01:44:19.552Z,1.39
2019-01-06T01:49:51.442Z,1.41
2019-01-06T01:55:49.122Z,1.33
2019-01-06T02:01:34.241Z,1.26
2019-01-06T02:07:13.586Z,1.27
2019-01-06T02:12:52.932Z,1.22
2019-01-06T02:18:41.133Z,1.27
2019-01-06T02:24:35.688Z,1.27
2019-01-06T02:30:14.388Z,1.27
2019-01-06T02:36:09.012Z,1.29
2019-01-06T02:41:54.819Z,1.28
2019-01-06T02:47:32.332Z,1.30
2019-01-06T02:53:20.560Z,1.30
2019-01-06T02:59:00.795Z,1.31
2019-01-06T03:04:38.843Z,1.30
2019-01-06T03:10:24.362Z,1.32
2019-01-06T03:16:03.914Z,1.28
2019-01-06T03:21:46.482Z,1.26
2019-01-06T03:27:18.495Z,1.30
2019-01-06T03:33:03.637Z,1.37
2019-01-06T03:38:40.591Z,1.37
2019-01-06T03:44:31.744Z,1.33
2019-01-06T03:50:11.046Z,1.33
2019-01-06T03:55:48.355Z,1.36
2019-01-06T04:01:21.594Z,1.38
2019-01-06T04:06:59.559Z,1.39
2019-01-06T04:12:42.152Z,1.39
2019-01-06T04:18:21.406Z,1.34
2019-01-06T04:23:59.159Z,1.41
2019-01-06T04:29:36.963Z,1.40
2019-01-06T04:35:15.765Z,1.38
2019-01-06T04:40:53.382Z,1.42
2019-01-06T04:46:33.004Z,1.37
2019-01-06T04:52:10.449Z,1.33
2019-01-06T04:57:56.454Z,1.23
2019-01-06T05:03:38.684Z,1.11
2019-01-06T05:09:16.616Z,1.12
2019-01-06T05:14:58.989Z,1.12
2019-01-06T05:20:37.178Z,1.06
2019-01-06T05:26:14.787Z,1.15
2019-01-06T05:31:52.350Z,1.15
2019-01-06T05:37:31.411Z,1.21
2019-01-06T05:43:25.544Z,1.22
2019-01-06T05:49:15.253Z,1.23
2019-01-06T05:55:00.094Z,1.15
2019-01-06T06:00:49.922Z,1.15
2019-01-06T06:06:32.282Z,1.20
2019-01-06T06:12:11.200Z,1.20
2019-01-06T06:17:50.421Z,1.12
2019-01-06T06:23:41.742Z,1.21
2019-01-06T06:29:09.934Z,1.26
2019-01-06T06:35:05.143Z,1.29
2019-01-06T06:40:42.896Z,1.29
2019-01-06T06:46:31.287Z,1.24
2019-01-06T06:52:10.667Z,1.24
2019-01-06T06:58:30.417Z,1.26
2019-01-06T07:04:08.497Z,1.22
2019-01-06T07:09:59.820Z,1.22
2019-01-06T07:15:37.557Z,1.31
2019-01-06T07:21:33.305Z,1.26
2019-01-06T07:27:10.723Z,1.26
2019-01-06T07:32:50.343Z,1.37
2019-01-06T07:38:35.957Z,1.33
2019-01-06T07:44:18.526Z,1.33
2019-01-06T07:50:00.740Z,1.28
2019-01-06T07:55:38.004Z,1.28
2019-01-06T08:01:17.186Z,1.34
2019-01-06T08:06:51.764Z,1.39
2019-01-06T08:12:36.876Z,1.38
2019-01-06T08:18:13.964Z,1.40
2019-01-06T08:24:04.884Z,1.29
2019-01-06T08:29:43.643Z,1.16
2019-01-06T08:35:21.404Z,1.23
2019-01-06T08:47:50.494Z,1.20
2019-01-06T08:53:00.042Z,1.34
2019-01-06T08:58:54.225Z,1.33
2019-01-06T09:04:34.468Z,0.92
2019-01-06T09:10:05.935Z,0.92
2019-01-06T09:15:44.291Z,0.97
2019-01-06T09:21:19.230Z,0.89
2019-01-06T09:27:10.377Z,0.90
2019-01-06T09:33:05.193Z,0.96
2019-01-06T09:38:42.448Z,0.86
2019-01-06T09:44:33.738Z,0.93
2019-01-06T09:50:28.502Z,0.84
2019-01-06T09:55:55.798Z,0.86
2019-01-06T10:01:46.902Z,1.01
2019-01-06T10:07:22.514Z,1.23
2019-01-06T10:13:24.200Z,1.16
2019-01-06T10:18:55.105Z,1.17
2019-01-06T10:24:37.864Z,1.07
2019-01-06T10:30:23.001Z,1.07
2019-01-06T10:36:07.263Z,0.95
2019-01-06T10:41:47.064Z,0.71
2019-01-06T10:47:33.247Z,0.64
2019-01-06T10:53:10.639Z,0.64
2019-01-06T10:59:01.531Z,0.77
2019-01-06T11:04:39.321Z,0.78
2019-01-06T11:10:24.879Z,0.64
2019-01-06T11:16:04.876Z,0.53
2019-01-06T11:21:46.443Z,0.58
2019-01-06T11:27:23.931Z,0.70
2019-01-06T11:33:11.991Z,0.70
2019-01-06T11:38:55.345Z,0.77
2019-01-06T11:44:41.877Z,0.82
2019-01-06T11:50:21.597Z,0.84
2019-01-06T11:55:54.222Z,0.80
2019-01-06T12:01:32.178Z,0.79
2019-01-06T12:07:09.873Z,0.82
2019-01-06T12:12:47.818Z,0.79
2019-01-06T12:18:26.149Z,0.84
2019-01-06T12:23:58.298Z,0.84
2019-01-06T12:29:43.337Z,0.76
2019-01-06T12:35:40.304Z,0.83
2019-01-06T12:41:29.022Z,0.72
2019-01-06T12:47:08.066Z,0.68
2019-01-06T12:52:47.511Z,0.75
2019-01-06T12:58:29.527Z,0.68
2019-01-06T13:04:14.840Z,0.69
2019-01-06T13:10:08.552Z,0.72
2019-01-06T13:15:45.995Z,0.72
2019-01-06T13:21:25.644Z,0.83
2019-01-06T13:27:20.615Z,0.83
2019-01-06T13:32:59.206Z,0.89
2019-01-06T13:38:57.538Z,0.95
2019-01-06T13:44:50.522Z,1.12
2019-01-06T13:50:31.571Z,1.12
2019-01-06T13:56:16.473Z,1.02
2019-01-06T14:02:01.332Z,1.02
2019-01-06T14:08:00.618Z,0.95
2019-01-06T14:13:34.616Z,0.93
2019-01-06T14:19:16.038Z,0.93
2019-01-06T14:24:54.723Z,0.82
2019-01-06T14:30:43.261Z,0.82
2019-01-06T14:36:21.806Z,0.97
2019-01-06T14:42:03.744Z,0.97
2019-01-06T14:47:40.665Z,0.91
2019-01-06T14:53:24.200Z,0.87
2019-01-06T14:59:22.210Z,0.87
2019-01-06T15:05:06.998Z,0.91
2019-01-06T15:10:51.523Z,0.91
2019-01-06T15:16:27.982Z,0.89
2019-01-06T15:22:18.968Z,0.86
2019-01-06T15:27:57.024Z,0.84
2019-01-06T15:33:44.274Z,0.75
2019-01-06T15:39:24.607Z,0.80
2019-01-06T15:45:08.539Z,0.79
2019-01-06T15:50:59.005Z,0.76
2019-01-06T15:56:35.713Z,0.62
2019-01-06T16:02:16.754Z,0.62
2019-01-06T16:08:11.273Z,0.62
2019-01-06T16:14:06.055Z,0.62
2019-01-06T16:19:43.713Z,0.61
2019-01-06T16:25:26.566Z,0.57
2019-01-06T16:31:05.018Z,0.57
2019-01-06T16:36:46.756Z,0.59
2019-01-06T16:42:29.012Z,0.59
2019-01-06T16:48:18.143Z,0.57
2019-01-06T16:53:54.184Z,0.59
2019-01-06T16:59:51.069Z,0.54
2019-01-06T17:05:42.728Z,0.55
2019-01-06T17:11:31.691Z,0.52
2019-01-06T17:17:11.103Z,0.52
2019-01-06T17:22:48.912Z,0.50
2019-01-06T17:28:40.301Z,0.50
2019-01-06T17:34:20.004Z,0.50
2019-01-06T17:39:58.818Z,0.47
2019-01-06T17:45:39.950Z,0.47
2019-01-06T17:51:27.831Z,0.52
2019-01-06T17:57:10.289Z,0.59
2019-01-06T18:02:48.090Z,0.59
2019-01-06T18:08:26.748Z,0.57
2019-01-06T18:14:05.151Z,0.63
2019-01-06T18:19:43.103Z,0.66
2019-01-06T18:25:34.661Z,0.62
2019-01-06T18:31:14.607Z,0.65
2019-01-06T18:36:55.152Z,0.76
2019-01-06T18:42:41.279Z,0.79
2019-01-06T18:48:29.825Z,0.79
2019-01-06T18:54:07.689Z,0.80
2019-01-06T18:59:46.627Z,0.86
2019-01-06T19:05:25.003Z,0.86
2019-01-06T19:11:14.113Z,0.86
2019-01-06T19:16:56.481Z,0.91
2019-01-06T19:22:36.963Z,0.75
2019-01-06T19:28:14.785Z,0.75
2019-01-06T19:33:52.635Z,0.82
2019-01-06T19:39:30.603Z,0.83
2019-01-06T19:45:10.822Z,0.82
2019-01-06T19:50:49.638Z,0.84
2019-01-06T19:56:33.019Z,0.82
2019-01-06T20:02:09.564Z,0.84
2019-01-06T20:08:02.032Z,0.77
2019-01-06T20:13:39.802Z,0.80
2019-01-06T20:19:17.969Z,0.73
2019-01-06T20:25:00.463Z,0.73
2019-01-06T20:30:49.071Z,0.74
2019-01-06T20:36:41.053Z,0.67
2019-01-06T20:42:26.584Z,0.64
2019-01-06T20:48:18.127Z,0.65
2019-01-06T20:53:56.029Z,0.65
2019-01-06T20:59:33.695Z,0.67
2019-01-06T21:05:13.318Z,0.67
2019-01-06T21:10:51.745Z,0.61
2019-01-06T21:16:31.390Z,0.60
2019-01-06T21:22:24.490Z,0.60
2019-01-06T21:28:10.669Z,0.65
2019-01-06T21:33:50.435Z,0.60
2019-01-06T21:39:29.502Z,0.70
2019-01-06T21:45:05.072Z,0.66
2019-01-06T21:50:59.519Z,0.69
2019-01-06T21:56:38.006Z,0.68
2019-01-06T22:02:32.187Z,0.73
2019-01-06T22:08:11.819Z,0.69
2019-01-06T22:13:51.408Z,0.69
2019-01-06T22:19:36.062Z,0.68
2019-01-06T22:25:07.367Z,0.65
2019-01-06T22:30:56.971Z,0.65
2019-01-06T22:36:54.403Z,0.59
2019-01-06T22:42:42.306Z,0.57
2019-01-06T22:48:20.369Z,0.56
2019-01-06T22:53:58.389Z,0.39
2019-01-06T22:59:42.697Z,0.39
2019-01-06T23:05:15.443Z,0.42
2019-01-06T23:10:54.043Z,0.40
2019-01-06T23:16:33.584Z,0.35
2019-01-06T23:22:08.326Z,0.31
2019-01-06T23:27:46.776Z,0.30
2019-01-06T23:33:32.362Z,0.24
2019-01-06T23:39:11.786Z,0.27
2019-01-06T23:44:49.582Z,0.24
2019-01-06T23:50:27.346Z,0.25
2019-01-06T23:56:05.044Z,0.17
